sensor_id;sensor_type;location;lat;lon;timestamp;pressure;altitude;pressure_sealevel;temperature;humidity
7834;BME280;3962;42.696;23.354;2023-06-19T00:02:05;95277.28;;;18.44;81.81
7834;BME280;3962;42.696;23.354;2023-06-19T00:04:32;95276.00;;;18.40;82.07
7834;BME280;3962;42.696;23.354;2023-06-19T00:06:59;95273.09;;;18.41;81.84
7834;BME280;3962;42.696;23.354;2023-06-19T00:09:27;95266.47;;;18.37;82.20
7834;BME280;3962;42.696;23.354;2023-06-19T00:11:54;95274.53;;;18.37;82.47
7834;BME280;3962;42.696;23.354;2023-06-19T00:14:21;95268.50;;;18.35;81.79
7834;BME280;3962;42.696;23.354;2023-06-19T00:16:48;95264.44;;;18.25;81.29
7834;BME280;3962;42.696;23.354;2023-06-19T00:19:15;95266.50;;;18.23;81.34
7834;BME280;3962;42.696;23.354;2023-06-19T00:21:43;95259.63;;;18.20;80.82
7834;BME280;3962;42.696;23.354;2023-06-19T00:24:10;95265.59;;;18.16;81.11
7834;BME280;3962;42.696;23.354;2023-06-19T00:26:38;95262.00;;;18.09;81.15
7834;BME280;3962;42.696;23.354;2023-06-19T00:29:06;95261.94;;;18.02;81.23
7834;BME280;3962;42.696;23.354;2023-06-19T00:31:33;95259.25;;;18.02;81.08
7834;BME280;3962;42.696;23.354;2023-06-19T00:34:02;95255.66;;;17.95;81.05
7834;BME280;3962;42.696;23.354;2023-06-19T00:36:29;95252.53;;;17.92;81.20
7834;BME280;3962;42.696;23.354;2023-06-19T00:38:56;95253.19;;;17.94;81.56
7834;BME280;3962;42.696;23.354;2023-06-19T00:41:24;95247.34;;;17.90;81.55
7834;BME280;3962;42.696;23.354;2023-06-19T00:43:54;95259.06;;;17.83;81.65
7834;BME280;3962;42.696;23.354;2023-06-19T00:46:21;95245.78;;;17.81;81.79
7834;BME280;3962;42.696;23.354;2023-06-19T00:48:48;95245.59;;;17.83;81.69
7834;BME280;3962;42.696;23.354;2023-06-19T00:51:15;95235.69;;;17.83;82.27
7834;BME280;3962;42.696;23.354;2023-06-19T00:53:42;95240.16;;;17.76;81.59
7834;BME280;3962;42.696;23.354;2023-06-19T00:56:09;95235.81;;;17.75;81.59
7834;BME280;3962;42.696;23.354;2023-06-19T00:58:36;95244.06;;;17.74;82.31
7834;BME280;3962;42.696;23.354;2023-06-19T01:01:04;95236.84;;;17.74;82.48
7834;BME280;3962;42.696;23.354;2023-06-19T01:03:31;95231.81;;;17.71;82.52
7834;BME280;3962;42.696;23.354;2023-06-19T01:05:59;95221.19;;;17.63;83.43
7834;BME280;3962;42.696;23.354;2023-06-19T01:08:41;95222.78;;;17.58;83.20
7834;BME280;3962;42.696;23.354;2023-06-19T01:11:09;95226.69;;;17.55;83.83
7834;BME280;3962;42.696;23.354;2023-06-19T01:13:41;95223.81;;;17.57;84.03
7834;BME280;3962;42.696;23.354;2023-06-19T01:16:13;95235.97;;;17.53;84.11
7834;BME280;3962;42.696;23.354;2023-06-19T01:18:42;95229.56;;;17.54;84.06
7834;BME280;3962;42.696;23.354;2023-06-19T01:21:11;95231.81;;;17.50;84.21
7834;BME280;3962;42.696;23.354;2023-06-19T01:23:40;95225.16;;;17.46;84.71
7834;BME280;3962;42.696;23.354;2023-06-19T01:26:07;95229.44;;;17.41;85.69
7834;BME280;3962;42.696;23.354;2023-06-19T01:28:34;95228.44;;;17.27;86.62
7834;BME280;3962;42.696;23.354;2023-06-19T01:31:04;95226.72;;;17.26;86.65
7834;BME280;3962;42.696;23.354;2023-06-19T01:33:33;95238.91;;;17.22;86.70
7834;BME280;3962;42.696;23.354;2023-06-19T01:36:04;95234.72;;;17.20;86.47
7834;BME280;3962;42.696;23.354;2023-06-19T01:38:33;95233.25;;;17.17;86.85
7834;BME280;3962;42.696;23.354;2023-06-19T01:41:04;95237.81;;;17.17;86.83
7834;BME280;3962;42.696;23.354;2023-06-19T01:43:32;95239.41;;;17.11;86.95
7834;BME280;3962;42.696;23.354;2023-06-19T01:46:00;95244.66;;;17.05;87.06
7834;BME280;3962;42.696;23.354;2023-06-19T01:48:27;95241.16;;;17.04;87.34
7834;BME280;3962;42.696;23.354;2023-06-19T01:50:54;95251.81;;;16.98;88.12
7834;BME280;3962;42.696;23.354;2023-06-19T01:53:21;95244.59;;;16.98;88.23
7834;BME280;3962;42.696;23.354;2023-06-19T01:55:48;95245.78;;;16.96;88.26
7834;BME280;3962;42.696;23.354;2023-06-19T01:58:17;95242.94;;;16.97;88.02
7834;BME280;3962;42.696;23.354;2023-06-19T02:00:44;95250.63;;;17.00;87.96
7834;BME280;3962;42.696;23.354;2023-06-19T02:03:10;95251.00;;;16.97;88.14
7834;BME280;3962;42.696;23.354;2023-06-19T02:05:37;95256.72;;;16.94;88.65
7834;BME280;3962;42.696;23.354;2023-06-19T02:08:05;95256.25;;;16.91;88.75
7834;BME280;3962;42.696;23.354;2023-06-19T02:10:32;95250.97;;;16.83;88.86
7834;BME280;3962;42.696;23.354;2023-06-19T02:12:59;95254.91;;;16.80;89.66
7834;BME280;3962;42.696;23.354;2023-06-19T02:15:27;95254.59;;;16.75;90.36
7834;BME280;3962;42.696;23.354;2023-06-19T02:17:55;95257.94;;;16.77;90.32
7834;BME280;3962;42.696;23.354;2023-06-19T02:20:22;95260.84;;;16.76;90.66
7834;BME280;3962;42.696;23.354;2023-06-19T02:22:50;95255.00;;;16.72;90.74
7834;BME280;3962;42.696;23.354;2023-06-19T02:25:17;95260.25;;;16.66;90.71
7834;BME280;3962;42.696;23.354;2023-06-19T02:27:43;95261.66;;;16.62;90.34
7834;BME280;3962;42.696;23.354;2023-06-19T02:30:11;95261.66;;;16.62;90.35
7834;BME280;3962;42.696;23.354;2023-06-19T02:32:39;95262.84;;;16.59;89.84
7834;BME280;3962;42.696;23.354;2023-06-19T02:35:09;95265.53;;;16.59;89.92
7834;BME280;3962;42.696;23.354;2023-06-19T02:37:36;95265.53;;;16.59;89.38
7834;BME280;3962;42.696;23.354;2023-06-19T02:40:04;95275.72;;;16.64;89.46
7834;BME280;3962;42.696;23.354;2023-06-19T02:42:32;95273.41;;;16.61;89.66
7834;BME280;3962;42.696;23.354;2023-06-19T02:44:58;95276.84;;;16.55;89.67
7834;BME280;3962;42.696;23.354;2023-06-19T02:47:29;95282.03;;;16.56;89.31
7834;BME280;3962;42.696;23.354;2023-06-19T02:49:59;95280.34;;;16.55;89.77
7834;BME280;3962;42.696;23.354;2023-06-19T02:52:26;95274.31;;;16.53;90.30
7834;BME280;3962;42.696;23.354;2023-06-19T02:54:53;95277.19;;;16.52;90.01
7834;BME280;3962;42.696;23.354;2023-06-19T02:57:20;95275.91;;;16.48;89.93
7834;BME280;3962;42.696;23.354;2023-06-19T02:59:47;95287.28;;;16.50;90.14
7834;BME280;3962;42.696;23.354;2023-06-19T03:02:14;95280.41;;;16.47;90.43
7834;BME280;3962;42.696;23.354;2023-06-19T03:04:41;95281.91;;;16.50;90.69
7834;BME280;3962;42.696;23.354;2023-06-19T03:07:09;95279.88;;;16.52;90.87
7834;BME280;3962;42.696;23.354;2023-06-19T03:09:36;95286.09;;;16.52;90.71
7834;BME280;3962;42.696;23.354;2023-06-19T03:12:03;95277.84;;;16.54;90.82
7834;BME280;3962;42.696;23.354;2023-06-19T03:14:30;95285.44;;;16.50;90.45
7834;BME280;3962;42.696;23.354;2023-06-19T03:16:57;95278.41;;;16.49;90.46
7834;BME280;3962;42.696;23.354;2023-06-19T03:19:24;95277.09;;;16.45;90.59
7834;BME280;3962;42.696;23.354;2023-06-19T03:21:51;95272.09;;;16.42;91.59
7834;BME280;3962;42.696;23.354;2023-06-19T03:24:19;95279.59;;;16.47;91.76
7834;BME280;3962;42.696;23.354;2023-06-19T03:26:46;95278.09;;;16.44;92.07
7834;BME280;3962;42.696;23.354;2023-06-19T03:29:12;95280.41;;;16.47;92.44
7834;BME280;3962;42.696;23.354;2023-06-19T03:31:39;95283.56;;;16.51;92.85
7834;BME280;3962;42.696;23.354;2023-06-19T03:34:06;95276.75;;;16.48;91.87
7834;BME280;3962;42.696;23.354;2023-06-19T03:36:33;95281.66;;;16.45;91.89
7834;BME280;3962;42.696;23.354;2023-06-19T03:38:59;95284.50;;;16.43;92.40
7834;BME280;3962;42.696;23.354;2023-06-19T03:41:28;95279.78;;;16.45;93.29
7834;BME280;3962;42.696;23.354;2023-06-19T03:43:54;95275.31;;;16.38;93.43
7834;BME280;3962;42.696;23.354;2023-06-19T03:46:21;95277.94;;;16.46;93.87
7834;BME280;3962;42.696;23.354;2023-06-19T03:48:48;95281.34;;;16.54;93.64
7834;BME280;3962;42.696;23.354;2023-06-19T03:51:15;95276.09;;;16.61;93.78
7834;BME280;3962;42.696;23.354;2023-06-19T03:53:42;95282.41;;;16.68;93.82
7834;BME280;3962;42.696;23.354;2023-06-19T03:56:09;95271.66;;;16.68;93.77
7834;BME280;3962;42.696;23.354;2023-06-19T03:58:37;95282.31;;;16.76;93.12
7834;BME280;3962;42.696;23.354;2023-06-19T04:01:03;95275.84;;;16.85;93.09
7834;BME280;3962;42.696;23.354;2023-06-19T04:03:31;95275.44;;;17.17;94.23
7834;BME280;3962;42.696;23.354;2023-06-19T04:05:58;95268.41;;;17.16;92.96
7834;BME280;3962;42.696;23.354;2023-06-19T04:08:25;95273.97;;;17.14;92.86
7834;BME280;3962;42.696;23.354;2023-06-19T04:10:52;95270.78;;;17.25;92.44
7834;BME280;3962;42.696;23.354;2023-06-19T04:13:19;95269.59;;;17.28;91.73
7834;BME280;3962;42.696;23.354;2023-06-19T04:15:47;95274.22;;;17.34;91.39
7834;BME280;3962;42.696;23.354;2023-06-19T04:18:14;95271.97;;;17.52;91.51
7834;BME280;3962;42.696;23.354;2023-06-19T04:20:41;95279.00;;;17.53;89.23
7834;BME280;3962;42.696;23.354;2023-06-19T04:23:08;95275.84;;;17.85;88.29
7834;BME280;3962;42.696;23.354;2023-06-19T04:25:34;95266.88;;;17.99;84.78
7834;BME280;3962;42.696;23.354;2023-06-19T04:28:01;95281.16;;;18.20;84.84
7834;BME280;3962;42.696;23.354;2023-06-19T04:30:29;95278.56;;;18.27;85.10
7834;BME280;3962;42.696;23.354;2023-06-19T04:32:58;95275.59;;;18.22;84.30
7834;BME280;3962;42.696;23.354;2023-06-19T04:35:25;95275.88;;;18.27;84.49
7834;BME280;3962;42.696;23.354;2023-06-19T04:37:53;95273.88;;;18.35;83.87
7834;BME280;3962;42.696;23.354;2023-06-19T04:40:20;95280.19;;;18.49;82.70
7834;BME280;3962;42.696;23.354;2023-06-19T04:42:47;95272.34;;;18.75;83.51
7834;BME280;3962;42.696;23.354;2023-06-19T04:45:14;95276.69;;;18.76;81.25
7834;BME280;3962;42.696;23.354;2023-06-19T04:47:40;95272.22;;;18.62;81.32
7834;BME280;3962;42.696;23.354;2023-06-19T04:50:11;95278.47;;;18.62;80.79
7834;BME280;3962;42.696;23.354;2023-06-19T04:52:38;95264.25;;;18.75;81.53
7834;BME280;3962;42.696;23.354;2023-06-19T04:55:05;95269.16;;;18.92;82.01
7834;BME280;3962;42.696;23.354;2023-06-19T04:57:35;95270.41;;;18.96;79.95
7834;BME280;3962;42.696;23.354;2023-06-19T05:00:02;95275.44;;;19.05;79.15
7834;BME280;3962;42.696;23.354;2023-06-19T05:02:30;95275.84;;;19.36;77.28
7834;BME280;3962;42.696;23.354;2023-06-19T05:04:57;95274.63;;;19.11;77.00
7834;BME280;3962;42.696;23.354;2023-06-19T05:07:29;95266.81;;;18.89;77.23
7834;BME280;3962;42.696;23.354;2023-06-19T05:09:56;95263.00;;;19.11;77.89
7834;BME280;3962;42.696;23.354;2023-06-19T05:12:22;95269.19;;;19.05;73.58
7834;BME280;3962;42.696;23.354;2023-06-19T05:14:49;95267.81;;;19.15;75.00
7834;BME280;3962;42.696;23.354;2023-06-19T05:17:16;95276.69;;;19.09;75.40
7834;BME280;3962;42.696;23.354;2023-06-19T05:19:43;95282.97;;;19.16;74.22
7834;BME280;3962;42.696;23.354;2023-06-19T05:22:10;95281.44;;;19.01;73.28
7834;BME280;3962;42.696;23.354;2023-06-19T05:24:38;95281.91;;;19.17;74.29
7834;BME280;3962;42.696;23.354;2023-06-19T05:27:05;95277.97;;;19.54;74.82
7834;BME280;3962;42.696;23.354;2023-06-19T05:29:33;95287.34;;;19.64;73.71
7834;BME280;3962;42.696;23.354;2023-06-19T05:31:59;95289.00;;;19.52;72.54
7834;BME280;3962;42.696;23.354;2023-06-19T05:34:26;95297.25;;;19.44;72.73
7834;BME280;3962;42.696;23.354;2023-06-19T05:36:53;95304.88;;;19.34;72.85
7834;BME280;3962;42.696;23.354;2023-06-19T05:39:20;95301.72;;;19.31;74.53
7834;BME280;3962;42.696;23.354;2023-06-19T05:41:48;95307.97;;;19.31;73.99
7834;BME280;3962;42.696;23.354;2023-06-19T05:44:15;95305.16;;;19.18;73.95
7834;BME280;3962;42.696;23.354;2023-06-19T05:46:45;95306.66;;;19.21;73.81
7834;BME280;3962;42.696;23.354;2023-06-19T05:49:12;95302.56;;;19.25;74.58
7834;BME280;3962;42.696;23.354;2023-06-19T05:51:39;95306.91;;;19.26;74.24
7834;BME280;3962;42.696;23.354;2023-06-19T05:54:06;95307.19;;;19.37;73.95
7834;BME280;3962;42.696;23.354;2023-06-19T05:56:33;95309.25;;;19.35;73.59
7834;BME280;3962;42.696;23.354;2023-06-19T05:59:02;95307.41;;;19.42;73.87
7834;BME280;3962;42.696;23.354;2023-06-19T06:01:30;95309.53;;;19.53;73.94
7834;BME280;3962;42.696;23.354;2023-06-19T06:03:57;95303.97;;;19.61;73.85
7834;BME280;3962;42.696;23.354;2023-06-19T06:06:27;95309.44;;;19.81;73.08
7834;BME280;3962;42.696;23.354;2023-06-19T06:08:53;95322.59;;;20.03;71.95
7834;BME280;3962;42.696;23.354;2023-06-19T06:11:21;95316.41;;;20.09;72.11
7834;BME280;3962;42.696;23.354;2023-06-19T06:13:48;95306.38;;;19.97;71.18
7834;BME280;3962;42.696;23.354;2023-06-19T06:16:17;95316.31;;;19.90;72.23
7834;BME280;3962;42.696;23.354;2023-06-19T06:18:44;95321.50;;;19.85;72.31
7834;BME280;3962;42.696;23.354;2023-06-19T06:21:11;95314.91;;;20.00;72.84
7834;BME280;3962;42.696;23.354;2023-06-19T06:23:40;95313.28;;;20.12;72.32
7834;BME280;3962;42.696;23.354;2023-06-19T06:26:07;95321.03;;;20.35;72.04
7834;BME280;3962;42.696;23.354;2023-06-19T06:28:33;95315.03;;;20.39;72.29
7834;BME280;3962;42.696;23.354;2023-06-19T06:31:00;95320.41;;;20.52;71.07
7834;BME280;3962;42.696;23.354;2023-06-19T06:33:29;95314.81;;;20.54;71.48
7834;BME280;3962;42.696;23.354;2023-06-19T06:35:57;95321.28;;;20.66;71.63
7834;BME280;3962;42.696;23.354;2023-06-19T06:38:24;95322.50;;;20.76;70.35
7834;BME280;3962;42.696;23.354;2023-06-19T06:40:51;95319.59;;;20.84;69.30
7834;BME280;3962;42.696;23.354;2023-06-19T06:43:18;95327.13;;;20.95;69.27
7834;BME280;3962;42.696;23.354;2023-06-19T06:45:44;95326.44;;;21.26;68.73
7834;BME280;3962;42.696;23.354;2023-06-19T06:48:11;95328.56;;;21.17;67.44
7834;BME280;3962;42.696;23.354;2023-06-19T06:50:39;95333.50;;;21.40;68.08
7834;BME280;3962;42.696;23.354;2023-06-19T06:53:07;95329.13;;;21.45;68.11
7834;BME280;3962;42.696;23.354;2023-06-19T06:55:34;95334.34;;;21.34;66.71
7834;BME280;3962;42.696;23.354;2023-06-19T06:58:01;95324.72;;;22.52;62.07
7834;BME280;3962;42.696;23.354;2023-06-19T07:00:28;95323.88;;;23.49;58.56
7834;BME280;3962;42.696;23.354;2023-06-19T07:02:55;95326.53;;;23.55;58.71
7834;BME280;3962;42.696;23.354;2023-06-19T07:05:22;95328.44;;;23.73;58.79
7834;BME280;3962;42.696;23.354;2023-06-19T07:07:50;95327.38;;;24.10;57.98
7834;BME280;3962;42.696;23.354;2023-06-19T07:10:17;95331.94;;;24.86;56.43
7834;BME280;3962;42.696;23.354;2023-06-19T07:12:45;95337.22;;;25.11;55.09
7834;BME280;3962;42.696;23.354;2023-06-19T07:15:12;95335.34;;;25.34;53.75
7834;BME280;3962;42.696;23.354;2023-06-19T07:17:41;95334.88;;;25.95;51.17
7834;BME280;3962;42.696;23.354;2023-06-19T07:20:09;95328.38;;;25.73;52.21
7834;BME280;3962;42.696;23.354;2023-06-19T07:22:36;95329.63;;;26.16;50.73
7834;BME280;3962;42.696;23.354;2023-06-19T07:25:06;95333.78;;;26.47;50.35
7834;BME280;3962;42.696;23.354;2023-06-19T07:27:33;95334.78;;;25.90;50.19
7834;BME280;3962;42.696;23.354;2023-06-19T07:30:01;95343.06;;;26.34;50.35
7834;BME280;3962;42.696;23.354;2023-06-19T07:32:28;95337.06;;;26.21;50.31
7834;BME280;3962;42.696;23.354;2023-06-19T07:34:54;95340.13;;;26.92;47.31
7834;BME280;3962;42.696;23.354;2023-06-19T07:37:21;95339.16;;;27.14;45.71
7834;BME280;3962;42.696;23.354;2023-06-19T07:39:49;95346.78;;;27.29;46.36
7834;BME280;3962;42.696;23.354;2023-06-19T07:42:18;95341.31;;;27.29;46.30
7834;BME280;3962;42.696;23.354;2023-06-19T07:44:46;95341.09;;;27.47;48.87
7834;BME280;3962;42.696;23.354;2023-06-19T07:47:13;95333.56;;;27.09;47.56
7834;BME280;3962;42.696;23.354;2023-06-19T07:49:40;95329.53;;;27.44;46.59
7834;BME280;3962;42.696;23.354;2023-06-19T07:52:07;95338.81;;;27.76;45.62
7834;BME280;3962;42.696;23.354;2023-06-19T07:54:35;95340.25;;;27.46;45.15
7834;BME280;3962;42.696;23.354;2023-06-19T07:57:02;95332.84;;;26.97;47.71
7834;BME280;3962;42.696;23.354;2023-06-19T07:59:31;95341.59;;;26.43;47.98
7834;BME280;3962;42.696;23.354;2023-06-19T08:01:58;95338.38;;;26.86;46.95
7834;BME280;3962;42.696;23.354;2023-06-19T08:04:25;95343.56;;;27.32;47.10
7834;BME280;3962;42.696;23.354;2023-06-19T08:06:52;95337.09;;;27.21;45.50
7834;BME280;3962;42.696;23.354;2023-06-19T08:09:18;95343.22;;;27.77;44.70
7834;BME280;3962;42.696;23.354;2023-06-19T08:11:45;95336.50;;;28.06;43.66
7834;BME280;3962;42.696;23.354;2023-06-19T08:14:12;95343.88;;;27.19;44.36
7834;BME280;3962;42.696;23.354;2023-06-19T08:16:40;95342.31;;;27.55;44.90
7834;BME280;3962;42.696;23.354;2023-06-19T08:19:07;95343.03;;;27.84;44.20
7834;BME280;3962;42.696;23.354;2023-06-19T08:21:34;95337.31;;;27.52;43.03
7834;BME280;3962;42.696;23.354;2023-06-19T08:24:01;95335.09;;;27.49;43.45
7834;BME280;3962;42.696;23.354;2023-06-19T08:26:28;95337.34;;;27.20;42.72
7834;BME280;3962;42.696;23.354;2023-06-19T08:28:54;95340.47;;;27.44;42.58
7834;BME280;3962;42.696;23.354;2023-06-19T08:31:21;95336.72;;;26.85;43.49
7834;BME280;3962;42.696;23.354;2023-06-19T08:33:58;95338.97;;;26.60;42.73
7834;BME280;3962;42.696;23.354;2023-06-19T08:36:25;95332.84;;;26.53;45.89
7834;BME280;3962;42.696;23.354;2023-06-19T08:38:52;95333.13;;;26.28;46.06
7834;BME280;3962;42.696;23.354;2023-06-19T08:41:19;95326.38;;;26.19;46.40
7834;BME280;3962;42.696;23.354;2023-06-19T08:43:46;95339.97;;;26.42;45.30
7834;BME280;3962;42.696;23.354;2023-06-19T08:46:15;95334.25;;;26.44;45.90
7834;BME280;3962;42.696;23.354;2023-06-19T08:48:43;95332.47;;;26.49;44.83
7834;BME280;3962;42.696;23.354;2023-06-19T08:51:11;95325.34;;;26.48;45.26
7834;BME280;3962;42.696;23.354;2023-06-19T08:53:45;95336.00;;;26.50;46.31
7834;BME280;3962;42.696;23.354;2023-06-19T08:56:12;95335.00;;;26.95;44.17
7834;BME280;3962;42.696;23.354;2023-06-19T08:58:39;95328.28;;;27.03;46.14
7834;BME280;3962;42.696;23.354;2023-06-19T09:01:06;95325.28;;;27.16;45.85
7834;BME280;3962;42.696;23.354;2023-06-19T09:03:34;95331.78;;;26.70;45.46
7834;BME280;3962;42.696;23.354;2023-06-19T09:06:03;95332.91;;;26.86;43.82
7834;BME280;3962;42.696;23.354;2023-06-19T09:08:31;95333.56;;;26.93;44.07
7834;BME280;3962;42.696;23.354;2023-06-19T09:11:03;95333.91;;;27.13;45.30
7834;BME280;3962;42.696;23.354;2023-06-19T09:13:31;95333.28;;;26.50;45.05
7834;BME280;3962;42.696;23.354;2023-06-19T09:16:02;95326.13;;;26.60;45.64
7834;BME280;3962;42.696;23.354;2023-06-19T09:18:31;95323.66;;;26.47;44.79
7834;BME280;3962;42.696;23.354;2023-06-19T09:20:58;95317.72;;;26.78;45.93
7834;BME280;3962;42.696;23.354;2023-06-19T09:23:25;95331.72;;;26.82;45.38
7834;BME280;3962;42.696;23.354;2023-06-19T09:25:54;95334.03;;;26.73;46.61
7834;BME280;3962;42.696;23.354;2023-06-19T09:28:23;95321.97;;;27.02;43.11
7834;BME280;3962;42.696;23.354;2023-06-19T09:30:54;95325.69;;;27.41;44.95
7834;BME280;3962;42.696;23.354;2023-06-19T09:33:22;95320.94;;;27.20;43.82
7834;BME280;3962;42.696;23.354;2023-06-19T09:35:49;95317.59;;;26.57;45.24
7834;BME280;3962;42.696;23.354;2023-06-19T09:38:17;95315.75;;;26.74;44.19
7834;BME280;3962;42.696;23.354;2023-06-19T09:40:45;95317.06;;;27.16;44.22
7834;BME280;3962;42.696;23.354;2023-06-19T09:43:18;95316.41;;;26.81;43.24
7834;BME280;3962;42.696;23.354;2023-06-19T09:45:48;95321.13;;;26.85;43.48
7834;BME280;3962;42.696;23.354;2023-06-19T09:48:20;95324.56;;;27.09;42.71
7834;BME280;3962;42.696;23.354;2023-06-19T09:50:51;95326.72;;;27.07;42.33
7834;BME280;3962;42.696;23.354;2023-06-19T09:53:19;95326.09;;;27.16;42.16
7834;BME280;3962;42.696;23.354;2023-06-19T09:55:48;95309.34;;;26.96;44.40
7834;BME280;3962;42.696;23.354;2023-06-19T09:58:19;95314.44;;;26.76;44.47
7834;BME280;3962;42.696;23.354;2023-06-19T10:00:47;95318.78;;;27.05;42.63
7834;BME280;3962;42.696;23.354;2023-06-19T10:03:16;95322.25;;;27.66;41.25
7834;BME280;3962;42.696;23.354;2023-06-19T10:05:43;95315.38;;;27.80;42.34
7834;BME280;3962;42.696;23.354;2023-06-19T10:08:10;95312.78;;;27.74;42.07
7834;BME280;3962;42.696;23.354;2023-06-19T10:10:46;95297.78;;;27.22;41.26
7834;BME280;3962;42.696;23.354;2023-06-19T10:13:15;95301.63;;;27.10;43.25
7834;BME280;3962;42.696;23.354;2023-06-19T10:15:44;95297.69;;;27.17;43.34
7834;BME280;3962;42.696;23.354;2023-06-19T10:18:14;95296.91;;;26.89;44.48
7834;BME280;3962;42.696;23.354;2023-06-19T10:20:43;95304.53;;;27.03;44.12
7834;BME280;3962;42.696;23.354;2023-06-19T10:23:12;95296.75;;;27.44;42.16
7834;BME280;3962;42.696;23.354;2023-06-19T10:25:43;95296.44;;;27.95;41.21
7834;BME280;3962;42.696;23.354;2023-06-19T10:28:18;95292.78;;;27.03;40.90
7834;BME280;3962;42.696;23.354;2023-06-19T10:30:51;95293.50;;;26.26;43.17
7834;BME280;3962;42.696;23.354;2023-06-19T10:33:19;95292.66;;;26.37;44.54
7834;BME280;3962;42.696;23.354;2023-06-19T10:35:45;95293.50;;;26.82;44.00
7834;BME280;3962;42.696;23.354;2023-06-19T10:38:14;95283.94;;;27.29;41.15
7834;BME280;3962;42.696;23.354;2023-06-19T10:40:42;95289.97;;;27.47;43.12
7834;BME280;3962;42.696;23.354;2023-06-19T10:43:09;95285.75;;;27.40;42.51
7834;BME280;3962;42.696;23.354;2023-06-19T10:45:36;95287.31;;;27.36;42.84
7834;BME280;3962;42.696;23.354;2023-06-19T10:48:05;95282.78;;;26.92;41.76
7834;BME280;3962;42.696;23.354;2023-06-19T10:50:37;95277.97;;;26.82;44.00
7834;BME280;3962;42.696;23.354;2023-06-19T10:53:06;95283.22;;;27.17;42.17
7834;BME280;3962;42.696;23.354;2023-06-19T10:55:33;95281.63;;;27.37;42.85
7834;BME280;3962;42.696;23.354;2023-06-19T10:58:01;95283.16;;;27.66;43.38
7834;BME280;3962;42.696;23.354;2023-06-19T11:00:30;95279.16;;;27.57;42.02
7834;BME280;3962;42.696;23.354;2023-06-19T11:02:58;95284.03;;;28.09;41.06
7834;BME280;3962;42.696;23.354;2023-06-19T11:05:27;95280.47;;;28.09;43.64
7834;BME280;3962;42.696;23.354;2023-06-19T11:07:55;95276.06;;;28.08;43.58
7834;BME280;3962;42.696;23.354;2023-06-19T11:10:23;95267.59;;;28.31;42.08
7834;BME280;3962;42.696;23.354;2023-06-19T11:12:53;95268.16;;;28.54;41.13
7834;BME280;3962;42.696;23.354;2023-06-19T11:15:28;95262.91;;;27.83;42.27
7834;BME280;3962;42.696;23.354;2023-06-19T11:17:55;95270.06;;;27.68;43.57
7834;BME280;3962;42.696;23.354;2023-06-19T11:20:22;95263.09;;;27.77;44.85
7834;BME280;3962;42.696;23.354;2023-06-19T11:22:54;95270.50;;;27.11;45.13
7834;BME280;3962;42.696;23.354;2023-06-19T11:25:22;95271.41;;;26.83;44.68
7834;BME280;3962;42.696;23.354;2023-06-19T11:27:49;95259.16;;;26.53;46.82
7834;BME280;3962;42.696;23.354;2023-06-19T11:30:17;95257.84;;;26.72;46.92
7834;BME280;3962;42.696;23.354;2023-06-19T11:32:46;95265.13;;;26.83;45.96
7834;BME280;3962;42.696;23.354;2023-06-19T11:35:15;95258.44;;;27.23;46.96
7834;BME280;3962;42.696;23.354;2023-06-19T11:37:43;95249.13;;;27.19;44.92
7834;BME280;3962;42.696;23.354;2023-06-19T11:40:11;95258.06;;;27.15;46.64
7834;BME280;3962;42.696;23.354;2023-06-19T11:42:52;95257.63;;;27.60;46.00
7834;BME280;3962;42.696;23.354;2023-06-19T11:45:21;95256.25;;;27.58;46.02
7834;BME280;3962;42.696;23.354;2023-06-19T11:47:49;95256.19;;;27.91;45.25
7834;BME280;3962;42.696;23.354;2023-06-19T11:50:16;95259.03;;;27.79;44.65
7834;BME280;3962;42.696;23.354;2023-06-19T11:52:45;95259.53;;;28.41;42.16
7834;BME280;3962;42.696;23.354;2023-06-19T11:55:13;95255.09;;;28.61;42.89
7834;BME280;3962;42.696;23.354;2023-06-19T11:57:41;95250.63;;;28.55;42.26
7834;BME280;3962;42.696;23.354;2023-06-19T12:00:14;95247.97;;;28.60;42.16
7834;BME280;3962;42.696;23.354;2023-06-19T12:02:41;95248.91;;;27.80;42.78
7834;BME280;3962;42.696;23.354;2023-06-19T12:05:08;95242.84;;;27.40;45.84
7834;BME280;3962;42.696;23.354;2023-06-19T12:07:36;95246.41;;;26.58;47.00
7834;BME280;3962;42.696;23.354;2023-06-19T12:10:04;95243.13;;;26.56;46.01
7834;BME280;3962;42.696;23.354;2023-06-19T12:12:36;95245.38;;;26.48;46.82
7834;BME280;3962;42.696;23.354;2023-06-19T12:15:05;95246.66;;;26.57;46.61
7834;BME280;3962;42.696;23.354;2023-06-19T12:17:32;95242.59;;;26.31;46.90
7834;BME280;3962;42.696;23.354;2023-06-19T12:19:59;95242.13;;;26.06;46.30
7834;BME280;3962;42.696;23.354;2023-06-19T12:22:26;95240.13;;;26.02;49.05
7834;BME280;3962;42.696;23.354;2023-06-19T12:24:54;95244.16;;;25.99;47.56
7834;BME280;3962;42.696;23.354;2023-06-19T12:27:20;95240.00;;;26.08;47.82
7834;BME280;3962;42.696;23.354;2023-06-19T12:29:49;95234.44;;;26.59;46.55
7834;BME280;3962;42.696;23.354;2023-06-19T12:32:15;95227.41;;;26.96;45.61
7834;BME280;3962;42.696;23.354;2023-06-19T12:34:43;95231.53;;;27.32;44.92
7834;BME280;3962;42.696;23.354;2023-06-19T12:37:13;95224.69;;;27.50;45.87
7834;BME280;3962;42.696;23.354;2023-06-19T12:39:40;95227.63;;;27.65;44.70
7834;BME280;3962;42.696;23.354;2023-06-19T12:42:09;95228.75;;;27.86;44.94
7834;BME280;3962;42.696;23.354;2023-06-19T12:44:37;95227.63;;;27.82;44.07
7834;BME280;3962;42.696;23.354;2023-06-19T12:47:06;95220.06;;;27.51;45.68
7834;BME280;3962;42.696;23.354;2023-06-19T12:49:33;95211.84;;;26.97;46.50
7834;BME280;3962;42.696;23.354;2023-06-19T12:52:00;95221.28;;;26.56;46.80
7834;BME280;3962;42.696;23.354;2023-06-19T12:54:27;95229.88;;;26.65;47.72
7834;BME280;3962;42.696;23.354;2023-06-19T12:56:53;95229.25;;;26.91;46.13
7834;BME280;3962;42.696;23.354;2023-06-19T12:59:20;95226.50;;;26.46;47.62
7834;BME280;3962;42.696;23.354;2023-06-19T13:01:47;95220.69;;;26.71;47.91
7834;BME280;3962;42.696;23.354;2023-06-19T13:04:15;95215.41;;;26.97;47.29
7834;BME280;3962;42.696;23.354;2023-06-19T13:06:42;95225.25;;;27.52;44.61
7834;BME280;3962;42.696;23.354;2023-06-19T13:09:09;95230.56;;;27.59;44.98
7834;BME280;3962;42.696;23.354;2023-06-19T13:11:36;95229.53;;;27.11;44.01
7834;BME280;3962;42.696;23.354;2023-06-19T13:14:03;95225.19;;;26.49;44.90